createdAt,value
2022-08-25T00:03:24.609Z,15470.29492
2022-08-25T00:18:26.812Z,5273.08301
2022-08-25T00:33:29.159Z,12699.9873
2022-08-25T00:48:31.408Z,9400.43359
2022-08-25T01:03:35.820Z,1484.99316
2022-08-25T01:18:38.248Z,1052.67798
2022-08-25T01:33:40.415Z,680.46033
2022-08-25T01:48:42.919Z,407.11304
2022-08-25T02:03:45.148Z,269.47006
2022-08-25T02:18:48.698Z,164.78384
2022-08-25T02:33:50.905Z,59.12832
2022-08-25T02:48:53.181Z,27.14087
2022-08-25T03:03:55.483Z,5.8159
2022-08-25T03:18:57.894Z,0.96932
2022-08-25T03:34:00.153Z,0
2022-08-25T03:49:02.463Z,0
2022-08-25T04:04:04.709Z,0
2022-08-25T04:19:06.958Z,0
2022-08-25T04:34:29.503Z,0
2022-08-25T04:49:33.658Z,0
2022-08-25T05:04:36.083Z,0
2022-08-25T05:19:38.411Z,0
2022-08-25T05:34:40.416Z,0
2022-08-25T05:49:42.875Z,0
2022-08-25T06:04:45.140Z,0
2022-08-25T06:19:47.320Z,0
2022-08-25T06:34:49.653Z,0
2022-08-25T06:49:51.750Z,0
2022-08-25T07:04:53.944Z,0
2022-08-25T07:19:57.514Z,0
2022-08-25T07:35:00.117Z,0
2022-08-25T07:50:03.786Z,0
2022-08-25T08:05:08.428Z,0
2022-08-25T08:20:12.024Z,0
2022-08-25T08:35:14.287Z,0
2022-08-25T08:50:20.331Z,0
2022-08-25T09:05:25.505Z,0
2022-08-25T09:20:27.592Z,0
2022-08-25T09:35:31.602Z,0
2022-08-25T09:50:35.086Z,0
2022-08-25T10:05:37.354Z,0
2022-08-25T10:20:44.699Z,0
2022-08-25T10:35:47.413Z,0
2022-08-25T10:50:49.615Z,0
2022-08-25T11:05:51.824Z,0
2022-08-25T11:20:54.058Z,0
2022-08-25T11:35:56.256Z,0
2022-08-25T11:50:59.005Z,0
2022-08-25T12:06:01.405Z,0
2022-08-25T12:21:03.755Z,0
2022-08-25T12:36:05.934Z,1.93863
2022-08-25T12:51:08.111Z,16.47838
2022-08-25T13:06:10.337Z,54.28174
2022-08-25T13:21:14.223Z,110.50211
2022-08-25T13:36:16.420Z,155.09068
2022-08-25T13:51:18.620Z,227.78943
2022-08-25T14:06:23.600Z,316.96655
2022-08-25T14:21:26.075Z,453.64023
2022-08-25T14:36:28.306Z,697.90802
2022-08-25T14:51:31.711Z,912.12701
2022-08-25T15:06:34.041Z,1245.57202
2022-08-25T15:21:36.423Z,1854.30286
2022-08-25T15:36:38.628Z,3997.46216
2022-08-25T15:51:40.906Z,4564.51221
2022-08-25T16:06:43.117Z,4535.43311
2022-08-25T16:21:47.420Z,5561.93945
2022-08-25T16:36:51.901Z,5815.90039
2022-08-25T16:51:57.559Z,5142.2251
2022-08-25T17:07:00.462Z,4784.54736
2022-08-25T17:22:04.213Z,4719.60303
2022-08-25T17:37:08.850Z,5009.42871
2022-08-25T17:52:11.209Z,5181.96729
2022-08-25T18:07:13.400Z,5671.47217
2022-08-25T18:22:15.597Z,6567.12061
2022-08-25T18:37:18.114Z,6985.86572
2022-08-25T18:52:20.330Z,6663.08301
2022-08-25T19:07:24.235Z,7087.64404
2022-08-25T19:22:40.723Z,4959.99365
2022-08-25T19:37:43.831Z,5399.09424
2022-08-25T19:52:46.033Z,4610.07031
2022-08-25T20:07:52.189Z,5942.88086
2022-08-25T20:22:54.542Z,4011.03247
2022-08-25T20:37:57.059Z,3908.28491
2022-08-25T20:52:59.415Z,6777.4624
2022-08-25T21:08:03.251Z,5348.68945
2022-08-25T21:23:05.694Z,8364.23438
2022-08-25T21:38:08.408Z,2718.93335
2022-08-25T21:53:11.449Z,1520.85791
2022-08-25T22:08:13.815Z,921.82019
2022-08-25T22:23:20.149Z,1344.44226
2022-08-25T22:38:22.694Z,2519.25415
2022-08-25T22:53:25.266Z,3151.24878
2022-08-25T23:08:40.708Z,3798.7522
2022-08-25T23:23:43.440Z,3319.90967
2022-08-25T23:38:45.934Z,11818.87891
2022-08-25T23:53:54.141Z,17775.33008
